< < Back
Terminal Aerodrome Forecast


Current Version              Previous Versions:   1  2  3  4  5  6  7  8  9  

Terminal Aerodrome Forecast

239
FTUS42 KTAE 240500
TAFTLH
TAF
KTLH 240526Z 2406/2506 25012KT P6SM SCT008 BKN015 OVC025
     FM241000 29011G17KT P6SM BKN008 OVC025
     FM241500 30012G18KT P6SM SKC
     FM242300 29005KT P6SM SKC=



Latest METAR

940
SAUS80 KWBC 250300 RRC
MTRTLH
METAR KTLH 250253Z 00000KT 10SM CLR 04/01 A3002 RMK AO2 SLP167 T00390006
51001 $


USA.gov is the U.S. government's official web portal to all federal, state and local government web resources and services.